createdAt,value
2022-12-16T00:01:08.593Z,61.38
2022-12-16T00:03:35.978Z,62.11
2022-12-16T00:06:04.512Z,61.84
2022-12-16T00:08:36.182Z,62.58
2022-12-16T00:11:03.604Z,62.77
2022-12-16T00:13:32.236Z,62.50
2022-12-16T00:15:59.927Z,62.72
2022-12-16T00:18:26.386Z,63.07
2022-12-16T00:20:53.958Z,62.99
2022-12-16T00:23:22.110Z,62.87
2022-12-16T00:25:48.999Z,63.03
2022-12-16T00:28:17.345Z,62.86
2022-12-16T00:30:44.736Z,63.13
2022-12-16T00:33:11.332Z,63.13
2022-12-16T00:35:40.518Z,62.96
2022-12-16T00:38:10.858Z,63.30
2022-12-16T00:40:37.319Z,63.04
2022-12-16T00:43:03.911Z,62.79
2022-12-16T00:45:31.247Z,62.56
2022-12-16T00:47:57.957Z,63.14
2022-12-16T00:50:24.996Z,62.97
2022-12-16T00:52:51.819Z,63.04
2022-12-16T00:55:18.831Z,63.04
2022-12-16T00:57:45.738Z,63.21
2022-12-16T01:00:15.487Z,63.66
2022-12-16T01:02:43.601Z,63.04
2022-12-16T01:05:12.159Z,63.56
2022-12-16T01:07:38.951Z,63.83
2022-12-16T01:10:06.892Z,63.87
2022-12-16T01:12:35.402Z,63.78
2022-12-16T01:15:03.333Z,63.42
2022-12-16T01:17:29.778Z,64.12
2022-12-16T01:19:56.150Z,63.44
2022-12-16T01:22:22.666Z,63.29
2022-12-16T01:24:49.187Z,63.86
2022-12-16T01:27:16.468Z,63.63
2022-12-16T01:29:43.099Z,63.29
2022-12-16T01:32:12.565Z,63.34
2022-12-16T01:34:39.287Z,64.05
2022-12-16T01:37:06.988Z,63.60
2022-12-16T01:39:33.408Z,63.50
2022-12-16T01:41:59.883Z,63.47
2022-12-16T01:44:26.956Z,63.34
2022-12-16T01:47:00.624Z,62.94
2022-12-16T01:49:35.851Z,63.03
2022-12-16T01:52:07.658Z,62.86
2022-12-16T01:54:39.679Z,62.80
2022-12-16T01:57:12.158Z,62.99
2022-12-16T01:59:41.572Z,62.62
2022-12-16T02:02:08.235Z,62.56
2022-12-16T02:04:35.377Z,62.82
2022-12-16T02:07:01.933Z,62.20
2022-12-16T02:09:28.316Z,62.18
2022-12-16T02:12:12.778Z,62.99
2022-12-16T02:15:00.531Z,62.76
2022-12-16T02:17:44.054Z,62.14
2022-12-16T02:20:32.157Z,62.33
2022-12-16T02:23:23.504Z,62.75
2022-12-16T02:26:17.140Z,62.62
2022-12-16T02:29:17.426Z,62.76
2022-12-16T02:32:01.529Z,62.56
2022-12-16T02:34:44.874Z,61.98
2022-12-16T02:37:30.849Z,62.28
2022-12-16T02:40:01.202Z,62.47
2022-12-16T02:42:31.804Z,61.89
2022-12-16T02:45:06.979Z,61.71
2022-12-16T02:47:33.317Z,62.00
2022-12-16T02:49:59.809Z,62.59
2022-12-16T02:52:30.294Z,62.64
2022-12-16T02:55:01.741Z,62.37
2022-12-16T02:57:48.364Z,62.35
2022-12-16T03:00:25.254Z,62.41
2022-12-16T03:03:02.040Z,62.71
2022-12-16T03:05:33.433Z,62.36
2022-12-16T03:08:07.575Z,62.51
2022-12-16T03:10:39.176Z,62.03
2022-12-16T03:13:08.574Z,62.03
2022-12-16T03:15:36.338Z,62.01
2022-12-16T03:18:06.012Z,61.17
2022-12-16T03:20:42.216Z,61.46
2022-12-16T03:23:15.435Z,61.24
2022-12-16T03:25:45.396Z,61.07
2022-12-16T03:28:39.752Z,61.16
2022-12-16T03:31:18.362Z,61.17
2022-12-16T03:34:04.570Z,61.34
2022-12-16T03:36:34.862Z,61.01
2022-12-16T03:39:02.943Z,61.28
2022-12-16T03:41:31.110Z,61.03
2022-12-16T03:43:57.482Z,61.59
2022-12-16T03:46:23.974Z,60.99
2022-12-16T03:48:51.475Z,61.26
2022-12-16T03:51:19.454Z,61.26
2022-12-16T03:53:46.691Z,61.13
2022-12-16T03:56:13.665Z,61.89
2022-12-16T03:58:40.422Z,61.31
2022-12-16T04:01:09.536Z,62.21
2022-12-16T04:03:37.240Z,62.08
2022-12-16T04:06:04.274Z,62.09
2022-12-16T04:08:30.618Z,61.87
2022-12-16T04:11:15.336Z,62.24
2022-12-16T04:14:00.222Z,61.86
2022-12-16T04:16:47.426Z,61.95
2022-12-16T04:19:44.538Z,61.60
2022-12-16T04:22:36.406Z,61.92
2022-12-16T04:25:09.055Z,61.67
2022-12-16T04:27:35.404Z,61.60
2022-12-16T04:30:19.892Z,61.80
2022-12-16T04:33:05.843Z,62.19
2022-12-16T04:35:51.112Z,62.06
2022-12-16T04:38:35.850Z,62.30
2022-12-16T04:41:20.666Z,61.96
2022-12-16T04:44:05.570Z,61.71
2022-12-16T04:46:50.524Z,62.49
2022-12-16T04:49:35.226Z,62.32
2022-12-16T04:52:20.133Z,62.75
2022-12-16T04:55:04.900Z,62.37
2022-12-16T04:57:49.566Z,62.82
2022-12-16T05:00:34.905Z,62.72
2022-12-16T05:03:19.675Z,62.72
2022-12-16T05:06:04.826Z,61.72
2022-12-16T05:08:50.040Z,62.54
2022-12-16T05:11:34.774Z,62.30
2022-12-16T05:14:19.523Z,62.49
2022-12-16T05:17:04.283Z,61.58
2022-12-16T05:19:49.034Z,61.73
2022-12-16T05:22:33.750Z,61.71
2022-12-16T05:25:18.928Z,61.78
2022-12-16T05:28:03.703Z,61.63
2022-12-16T05:30:48.643Z,61.96
2022-12-16T05:33:34.020Z,62.14
2022-12-16T05:36:19.379Z,62.64
2022-12-16T05:39:21.004Z,62.39
2022-12-16T05:42:06.137Z,62.39
2022-12-16T05:44:51.634Z,62.57
2022-12-16T05:47:36.396Z,62.80
2022-12-16T05:50:21.734Z,63.41
2022-12-16T05:53:11.619Z,62.43
2022-12-16T05:55:56.905Z,63.13
2022-12-16T05:58:42.637Z,62.30
2022-12-16T06:01:27.966Z,63.12
2022-12-16T06:04:17.548Z,62.06
2022-12-16T06:07:03.559Z,61.76
2022-12-16T06:09:54.723Z,62.42
2022-12-16T06:12:41.585Z,62.32
2022-12-16T06:15:26.881Z,62.23
2022-12-16T06:18:11.730Z,62.47
2022-12-16T06:20:56.458Z,62.30
2022-12-16T06:23:41.345Z,62.15
2022-12-16T06:26:26.738Z,62.11
2022-12-16T06:29:12.100Z,62.22
2022-12-16T06:31:56.898Z,62.48
2022-12-16T06:34:41.880Z,62.09
2022-12-16T06:37:26.790Z,62.39
2022-12-16T06:40:11.441Z,61.72
2022-12-16T06:43:00.517Z,61.55
2022-12-16T06:45:46.311Z,62.29
2022-12-16T06:48:30.938Z,62.26
2022-12-16T06:51:15.744Z,61.82
2022-12-16T06:54:00.473Z,61.82
2022-12-16T06:56:45.368Z,62.31
2022-12-16T06:59:30.126Z,62.39
2022-12-16T07:02:15.071Z,61.73
2022-12-16T07:05:00.155Z,61.79
2022-12-16T07:07:44.914Z,61.92
2022-12-16T07:10:30.822Z,62.13
2022-12-16T07:13:17.958Z,61.58
2022-12-16T07:16:05.047Z,61.53
2022-12-16T07:18:59.525Z,61.53
2022-12-16T07:21:44.384Z,61.38
2022-12-16T07:24:29.127Z,60.97
2022-12-16T07:27:13.909Z,61.76
2022-12-16T07:29:58.630Z,61.61
2022-12-16T07:32:43.321Z,61.80
2022-12-16T07:35:27.962Z,62.12
2022-12-16T07:38:12.640Z,61.38
2022-12-16T07:40:58.016Z,62.08
2022-12-16T07:43:43.072Z,61.85
2022-12-16T07:46:28.111Z,62.25
2022-12-16T07:49:12.786Z,62.41
2022-12-16T07:51:57.640Z,61.97
2022-12-16T07:54:42.403Z,62.30
2022-12-16T07:57:27.679Z,62.14
2022-12-16T08:00:12.390Z,62.78
2022-12-16T08:02:57.297Z,62.84
2022-12-16T08:05:42.610Z,62.87
2022-12-16T08:08:27.379Z,62.87
2022-12-16T08:11:12.282Z,63.80
2022-12-16T08:13:57.078Z,63.47
2022-12-16T08:16:41.978Z,63.45
2022-12-16T08:19:26.669Z,64.12
2022-12-16T08:22:11.363Z,63.61
2022-12-16T08:24:56.254Z,64.11
2022-12-16T08:27:41.316Z,64.22
2022-12-16T08:30:27.322Z,64.50
2022-12-16T08:33:18.967Z,64.14
2022-12-16T08:36:05.344Z,64.43
2022-12-16T08:38:50.645Z,64.35
2022-12-16T08:41:35.994Z,64.14
2022-12-16T08:44:20.800Z,64.12
2022-12-16T08:47:10.012Z,65.13
2022-12-16T08:49:57.828Z,65.28
2022-12-16T08:52:46.711Z,64.93
2022-12-16T08:55:31.610Z,64.47
2022-12-16T08:58:16.384Z,64.95
2022-12-16T09:01:06.623Z,64.51
2022-12-16T09:03:52.269Z,64.59
2022-12-16T09:06:40.687Z,64.55
2022-12-16T09:09:26.607Z,64.35
2022-12-16T09:12:11.382Z,64.11
2022-12-16T09:14:56.190Z,63.77
2022-12-16T09:17:41.502Z,63.90
2022-12-16T09:20:26.753Z,64.25
2022-12-16T09:23:11.618Z,64.13
2022-12-16T09:25:56.438Z,63.92
2022-12-16T09:28:41.232Z,63.61
2022-12-16T09:31:25.989Z,63.84
2022-12-16T09:34:10.827Z,63.88
2022-12-16T09:36:55.590Z,63.86
2022-12-16T09:39:40.768Z,64.00
2022-12-16T09:43:04.008Z,63.97
2022-12-16T09:46:15.444Z,63.64
2022-12-16T09:49:20.207Z,63.64
2022-12-16T09:52:06.503Z,63.59
2022-12-16T09:54:54.858Z,63.86
2022-12-16T09:57:43.278Z,63.70
2022-12-16T10:00:40.678Z,63.80
2022-12-16T10:03:35.478Z,63.88
2022-12-16T10:06:50.382Z,63.64
2022-12-16T10:10:10.031Z,63.45
2022-12-16T10:13:27.056Z,63.43
2022-12-16T10:16:26.568Z,63.22
2022-12-16T10:19:25.695Z,63.50
2022-12-16T10:22:20.467Z,63.48
2022-12-16T10:25:25.232Z,63.17
2022-12-16T10:28:21.308Z,63.34
2022-12-16T10:31:06.768Z,63.29
2022-12-16T10:33:51.859Z,63.21
2022-12-16T10:36:41.138Z,63.08
2022-12-16T10:39:56.846Z,62.96
2022-12-16T10:42:41.613Z,63.44
2022-12-16T10:45:42.556Z,62.80
2022-12-16T10:48:29.503Z,62.42
2022-12-16T10:51:14.510Z,62.21
2022-12-16T10:53:59.397Z,62.05
2022-12-16T10:57:01.160Z,62.25
2022-12-16T10:59:55.070Z,62.24
2022-12-16T11:02:43.336Z,62.15
2022-12-16T11:05:47.140Z,61.76
2022-12-16T11:08:46.731Z,62.13
2022-12-16T11:11:54.093Z,62.26
2022-12-16T11:14:42.088Z,62.54
2022-12-16T11:17:45.246Z,62.52
2022-12-16T11:20:48.489Z,62.41
2022-12-16T11:23:43.996Z,62.29
2022-12-16T11:26:37.932Z,62.38
2022-12-16T11:29:36.964Z,62.56
2022-12-16T11:32:25.266Z,62.11
2022-12-16T11:35:14.755Z,62.54
2022-12-16T11:38:01.579Z,62.45
2022-12-16T11:40:49.146Z,62.30
2022-12-16T11:43:53.692Z,62.03
2022-12-16T11:46:47.058Z,62.20
2022-12-16T11:49:51.717Z,62.25
2022-12-16T11:52:40.677Z,62.38
2022-12-16T11:56:15.648Z,62.32
2022-12-16T11:59:08.468Z,62.11
2022-12-16T12:02:13.610Z,62.12
2022-12-16T12:04:58.695Z,62.21
2022-12-16T12:08:08.263Z,62.11
2022-12-16T12:11:08.873Z,62.04
2022-12-16T12:14:10.438Z,62.18
2022-12-16T12:17:10.846Z,61.92
2022-12-16T12:20:19.385Z,62.07
2022-12-16T12:23:05.247Z,62.10
2022-12-16T12:26:09.273Z,62.13
2022-12-16T12:29:03.765Z,62.24
2022-12-16T12:32:15.557Z,62.13
2022-12-16T12:35:59.175Z,61.90
2022-12-16T12:38:58.709Z,62.01
2022-12-16T12:41:47.164Z,61.96
2022-12-16T12:44:51.104Z,62.07
2022-12-16T12:47:38.396Z,62.07
2022-12-16T12:50:26.822Z,62.14
2022-12-16T12:53:42.571Z,61.97
2022-12-16T12:56:27.323Z,61.87
2022-12-16T12:59:18.019Z,61.89
2022-12-16T13:02:05.125Z,61.83
2022-12-16T13:04:51.749Z,61.54
2022-12-16T13:07:37.138Z,61.80
2022-12-16T13:10:44.078Z,61.62
2022-12-16T13:13:48.944Z,61.74
2022-12-16T13:17:02.989Z,61.33
2022-12-16T13:19:47.848Z,61.11
2022-12-16T13:22:53.472Z,61.34
2022-12-16T13:26:10.457Z,61.29
2022-12-16T13:28:59.205Z,61.12
2022-12-16T13:31:46.691Z,61.07
2022-12-16T13:34:34.864Z,60.99
2022-12-16T13:37:28.451Z,60.88
2022-12-16T13:40:25.204Z,61.03
2022-12-16T13:43:12.588Z,61.02
2022-12-16T13:46:15.820Z,61.18
2022-12-16T13:49:01.597Z,61.10
2022-12-16T13:51:55.628Z,61.00
2022-12-16T13:55:10.433Z,61.08
2022-12-16T13:58:01.917Z,61.09
2022-12-16T14:00:48.400Z,61.13
2022-12-16T14:03:57.906Z,61.40
2022-12-16T14:06:46.153Z,61.17
2022-12-16T14:09:48.232Z,61.03
2022-12-16T14:12:49.215Z,61.10
2022-12-16T14:15:45.980Z,60.89
2022-12-16T14:19:13.081Z,61.10
2022-12-16T14:22:35.195Z,61.09
2022-12-16T14:25:33.257Z,60.87
2022-12-16T14:28:19.543Z,61.03
2022-12-16T14:31:24.367Z,61.31
2022-12-16T14:34:12.955Z,60.89
2022-12-16T14:36:58.812Z,61.06
2022-12-16T14:39:49.148Z,61.23
2022-12-16T14:42:38.144Z,61.28
2022-12-16T14:45:39.098Z,61.17
2022-12-16T14:48:44.459Z,61.19
2022-12-16T14:51:41.531Z,61.23
2022-12-16T14:54:45.927Z,61.04
2022-12-16T14:57:53.301Z,61.20
2022-12-16T15:00:41.061Z,61.04
2022-12-16T15:03:26.304Z,60.80
2022-12-16T15:06:12.248Z,60.72
2022-12-16T15:09:09.448Z,61.10
2022-12-16T15:11:55.210Z,61.04
2022-12-16T15:14:48.562Z,61.07
2022-12-16T15:18:00.496Z,60.87
2022-12-16T15:20:48.507Z,60.84
2022-12-16T15:23:44.107Z,60.98
2022-12-16T15:26:37.233Z,61.02
2022-12-16T15:29:22.432Z,61.35
2022-12-16T15:32:10.546Z,61.59
2022-12-16T15:35:05.906Z,61.65
2022-12-16T15:38:04.179Z,61.72
2022-12-16T15:40:51.820Z,61.64
2022-12-16T15:43:53.629Z,61.45
2022-12-16T15:46:43.448Z,61.48
2022-12-16T15:49:49.354Z,61.51
2022-12-16T15:52:43.470Z,61.70
2022-12-16T15:55:49.324Z,61.73
2022-12-16T15:58:47.324Z,61.62
2022-12-16T16:01:35.509Z,61.40
2022-12-16T16:04:20.839Z,61.65
2022-12-16T16:07:11.122Z,61.65
2022-12-16T16:09:58.404Z,61.88
2022-12-16T16:12:44.497Z,61.79
2022-12-16T16:15:31.871Z,61.84
2022-12-16T16:18:19.641Z,61.83
2022-12-16T16:21:05.021Z,62.02
2022-12-16T16:23:50.276Z,61.96
2022-12-16T16:26:38.585Z,62.26
2022-12-16T16:29:24.004Z,61.83
2022-12-16T16:32:09.255Z,61.84
2022-12-16T16:34:54.089Z,62.11
2022-12-16T16:37:40.040Z,61.96
2022-12-16T16:40:43.872Z,62.25
2022-12-16T16:43:28.820Z,61.87
2022-12-16T16:46:14.349Z,62.05
2022-12-16T16:48:59.950Z,62.04
2022-12-16T16:51:45.861Z,61.92
2022-12-16T16:54:30.697Z,62.52
2022-12-16T16:57:18.641Z,61.77
2022-12-16T17:00:07.983Z,61.73
2022-12-16T17:02:52.850Z,62.12
2022-12-16T17:05:37.977Z,62.02
2022-12-16T17:08:23.133Z,61.94
2022-12-16T17:11:07.978Z,61.86
2022-12-16T17:13:53.063Z,61.58
2022-12-16T17:16:37.895Z,61.86
2022-12-16T17:19:22.686Z,61.57
2022-12-16T17:22:07.393Z,61.86
2022-12-16T17:24:54.280Z,61.81
2022-12-16T17:27:42.566Z,62.32
2022-12-16T17:30:47.686Z,62.18
2022-12-16T17:33:34.495Z,62.13
2022-12-16T17:36:19.941Z,62.36
2022-12-16T17:39:05.247Z,62.34
2022-12-16T17:41:52.190Z,61.90
2022-12-16T17:44:37.545Z,62.27
2022-12-16T17:47:22.808Z,61.78
2022-12-16T17:50:27.501Z,61.82
2022-12-16T17:53:17.062Z,62.23
2022-12-16T17:56:02.619Z,62.21
2022-12-16T17:58:52.476Z,62.05
2022-12-16T18:01:37.867Z,62.46
2022-12-16T18:04:23.591Z,62.46
2022-12-16T18:07:08.455Z,62.63
2022-12-16T18:09:53.846Z,62.46
2022-12-16T18:12:39.590Z,62.40
2022-12-16T18:15:24.392Z,62.61
2022-12-16T18:18:09.724Z,62.46
2022-12-16T18:20:55.092Z,61.93
2022-12-16T18:23:40.042Z,62.03
2022-12-16T18:26:27.280Z,62.19
2022-12-16T18:29:12.112Z,62.30
2022-12-16T18:31:57.603Z,61.91
2022-12-16T18:34:42.453Z,62.65
2022-12-16T18:37:30.526Z,62.65
2022-12-16T18:40:17.138Z,62.38
2022-12-16T18:43:05.197Z,62.11
2022-12-16T18:45:50.209Z,62.09
2022-12-16T18:48:35.292Z,62.04
2022-12-16T18:51:20.172Z,62.38
2022-12-16T18:54:08.676Z,61.91
2022-12-16T18:56:53.326Z,62.28
2022-12-16T18:59:38.328Z,62.08
2022-12-16T19:02:23.154Z,62.16
2022-12-16T19:05:08.242Z,61.98
2022-12-16T19:07:53.099Z,61.68
2022-12-16T19:10:37.852Z,62.49
2022-12-16T19:13:22.858Z,62.30
2022-12-16T19:16:15.298Z,62.23
2022-12-16T19:19:00.847Z,62.65
2022-12-16T19:24:51.261Z,62.42
2022-12-16T19:27:37.043Z,61.88
2022-12-16T19:30:22.822Z,62.72
2022-12-16T19:33:07.652Z,62.54
2022-12-16T19:35:52.482Z,62.56
2022-12-16T19:38:39.111Z,62.02
2022-12-16T19:41:24.006Z,62.53
2022-12-16T19:44:08.748Z,62.54
2022-12-16T19:46:56.234Z,62.05
2022-12-16T19:49:44.387Z,62.35
2022-12-16T19:52:29.905Z,61.84
2022-12-16T19:55:17.492Z,62.21
2022-12-16T19:58:10.121Z,62.41
2022-12-16T20:00:54.962Z,61.93
2022-12-16T20:03:41.909Z,61.98
2022-12-16T20:06:28.041Z,62.67
2022-12-16T20:09:14.398Z,62.31
2022-12-16T20:12:11.898Z,61.94
2022-12-16T20:14:56.677Z,62.30
2022-12-16T20:17:42.053Z,62.08
2022-12-16T20:20:27.323Z,62.14
2022-12-16T20:23:14.483Z,62.68
2022-12-16T20:25:59.241Z,62.53
2022-12-16T20:28:43.935Z,62.12
2022-12-16T20:31:28.829Z,61.87
2022-12-16T20:34:15.087Z,62.36
2022-12-16T20:37:00.856Z,61.59
2022-12-16T20:39:51.151Z,62.30
2022-12-16T20:42:40.970Z,61.84
2022-12-16T20:45:26.213Z,61.62
2022-12-16T20:48:12.548Z,61.51
2022-12-16T20:50:57.199Z,61.99
2022-12-16T20:53:42.729Z,61.54
2022-12-16T20:56:27.767Z,61.84
2022-12-16T20:59:12.605Z,61.70
2022-12-16T21:02:22.192Z,61.52
2022-12-16T21:05:02.490Z,61.38
2022-12-16T21:07:47.505Z,61.83
2022-12-16T21:10:32.901Z,61.62
2022-12-16T21:13:28.429Z,61.59
2022-12-16T21:14:28.211Z,62.75
2022-12-16T21:16:16.210Z,61.23
2022-12-16T21:19:01.518Z,61.78
2022-12-16T21:21:46.410Z,62.00
2022-12-16T21:24:31.282Z,61.99
2022-12-16T21:27:16.635Z,61.57
2022-12-16T21:30:01.575Z,61.59
2022-12-16T21:32:59.907Z,61.70
2022-12-16T21:35:44.594Z,61.67
2022-12-16T21:38:30.526Z,61.54
2022-12-16T21:41:16.588Z,62.00
2022-12-16T21:44:01.507Z,61.98
2022-12-16T21:46:46.343Z,61.68
2022-12-16T21:49:31.106Z,61.78
2022-12-16T21:52:16.011Z,62.14
2022-12-16T21:55:00.851Z,61.97
2022-12-16T21:57:45.801Z,61.33
2022-12-16T22:00:31.519Z,61.54
2022-12-16T22:03:16.294Z,62.01
2022-12-16T22:06:01.113Z,61.68
2022-12-16T22:08:46.147Z,61.98
2022-12-16T22:11:32.444Z,61.05
2022-12-16T22:14:25.235Z,61.38
2022-12-16T22:17:09.871Z,61.65
2022-12-16T22:19:56.187Z,61.96
2022-12-16T22:22:41.874Z,61.32
2022-12-16T22:25:27.103Z,60.96
2022-12-16T22:28:11.834Z,61.88
2022-12-16T22:30:56.823Z,61.92
2022-12-16T22:33:41.906Z,61.93
2022-12-16T22:36:27.661Z,61.56
2022-12-16T22:39:15.418Z,62.05
2022-12-16T22:42:00.974Z,61.84
2022-12-16T22:44:45.624Z,61.75
2022-12-16T22:47:30.581Z,62.70
2022-12-16T22:50:15.482Z,62.15
2022-12-16T22:53:00.484Z,62.42
2022-12-16T22:55:45.601Z,62.52
2022-12-16T22:58:31.418Z,63.16
2022-12-16T23:01:16.365Z,62.89
2022-12-16T23:04:01.317Z,62.72
2022-12-16T23:06:46.274Z,63.33
2022-12-16T23:09:31.076Z,63.07
2022-12-16T23:12:16.380Z,63.27
2022-12-16T23:15:01.241Z,63.78
2022-12-16T23:17:46.059Z,63.68
2022-12-16T23:20:31.007Z,63.37
2022-12-16T23:23:15.986Z,63.86
2022-12-16T23:26:00.956Z,63.93
2022-12-16T23:28:45.608Z,63.86
2022-12-16T23:31:30.692Z,64.07
2022-12-16T23:34:16.206Z,64.08
2022-12-16T23:37:01.258Z,63.67
2022-12-16T23:39:46.153Z,63.42
2022-12-16T23:42:30.914Z,63.98
2022-12-16T23:45:15.807Z,64.08
2022-12-16T23:48:00.689Z,64.31
2022-12-16T23:50:45.492Z,64.02
2022-12-16T23:53:30.851Z,64.39
2022-12-16T23:56:17.627Z,63.70
2022-12-16T23:59:03.498Z,64.13
